YCH weather

Miramichi Airport
Miramichi, New Brunswick, Canada

Public forecast

Using degrees Celsius for public forecast. Weather courtesy of forecast.io.

Closest aviation weather report (METAR) to Miramichi Airport

Closest report is Bathurst Airport, 39.2 nm (72.5 km) NNW. Retrieved 2020/04/06 08:00 UTC (14 minutes ago):

CZBF 060800Z AUTO 29009G17KT 250V330 9SM BKN024 BKN090 03/01 A2971 RMK SLP065

Closest aviation forecast (TAF) to Miramichi Airport

Forecast is more than 12 hours old.

Closest forecast is Bathurst Airport, 39.2 nm (72.5 km) NNW. Retrieved 2020/04/05 20:00 UTC (12 hours ago):

TAF CZBF 051938Z 0520/0603 VRB03KT P6SM SCT060 TEMPO 0520/0522 BKN060 BECMG 0520/0522 18005KT FM052200 16005KT P6SM FEW020 OVC040 TEMPO 0522/0603 5SM -RA BR OVC020 BECMG 0522/0524 22005KT RMK FCST BASED ON AUTO OBS NXT FCST WILL BE ISSUED AT 060845Z